createdAt,value
2019-03-15T00:00:39.267Z,99635.81
2019-03-15T00:03:07.976Z,99644.70
2019-03-15T00:05:36.795Z,99643.70
2019-03-15T00:08:06.422Z,99649.27
2019-03-15T00:10:35.469Z,99644.71
2019-03-15T00:13:05.204Z,99645.56
2019-03-15T00:15:36.016Z,99652.29
2019-03-15T00:18:05.060Z,99649.88
2019-03-15T00:20:36.156Z,99651.91
2019-03-15T00:23:05.028Z,99649.00
2019-03-15T00:25:33.842Z,99655.58
2019-03-15T00:28:02.581Z,99654.02
2019-03-15T00:30:31.378Z,99652.79
2019-03-15T00:33:00.157Z,99650.41
2019-03-15T00:35:28.769Z,99651.23
2019-03-15T00:37:57.475Z,99661.62
2019-03-15T00:40:26.112Z,99660.99
2019-03-15T00:42:54.761Z,99661.56
2019-03-15T00:45:23.360Z,99652.25
2019-03-15T00:47:51.987Z,99656.08
2019-03-15T00:50:20.605Z,99652.58
2019-03-15T00:52:49.218Z,99652.02
2019-03-15T00:55:18.143Z,99654.59
2019-03-15T00:57:48.683Z,99657.70
2019-03-15T01:00:17.446Z,99658.09
2019-03-15T01:02:46.144Z,99663.28
2019-03-15T01:05:14.884Z,99678.08
2019-03-15T01:07:43.478Z,99678.98
2019-03-15T01:10:12.737Z,99672.80
2019-03-15T01:12:41.340Z,99669.69
2019-03-15T01:15:10.391Z,99678.96
2019-03-15T01:17:39.004Z,99675.97
2019-03-15T01:20:07.790Z,99677.30
2019-03-15T01:22:36.426Z,99676.74
2019-03-15T01:25:05.235Z,99680.43
2019-03-15T01:27:33.888Z,99682.95
2019-03-15T01:30:02.485Z,99684.58
2019-03-15T01:32:31.097Z,99678.41
2019-03-15T01:34:59.732Z,99675.84
2019-03-15T01:37:28.389Z,99689.20
2019-03-15T01:39:56.988Z,99687.87
2019-03-15T01:42:25.655Z,99678.33
2019-03-15T01:44:54.312Z,99691.16
2019-03-15T01:47:22.895Z,99689.60
2019-03-15T01:49:51.522Z,99688.57
2019-03-15T01:52:20.123Z,99685.71
2019-03-15T01:54:48.747Z,99689.56
2019-03-15T01:57:17.358Z,99670.95
2019-03-15T01:59:45.963Z,99681.78
2019-03-15T02:02:14.594Z,99679.61
2019-03-15T02:04:43.187Z,99670.00
2019-03-15T02:07:11.780Z,99674.63
2019-03-15T02:09:40.399Z,99676.25
2019-03-15T02:12:09.012Z,99669.47
2019-03-15T02:14:37.641Z,99659.29
2019-03-15T02:17:06.254Z,99656.76
2019-03-15T02:19:35.415Z,99654.09
2019-03-15T02:22:04.275Z,99653.77
2019-03-15T02:24:32.902Z,99655.45
2019-03-15T02:27:01.513Z,99659.72
2019-03-15T02:29:30.165Z,99658.31
2019-03-15T02:31:58.751Z,99662.56
2019-03-15T02:34:27.715Z,99668.45
2019-03-15T02:36:56.364Z,99665.52
2019-03-15T02:39:25.225Z,99671.69
2019-03-15T02:41:53.803Z,99670.16
2019-03-15T02:44:22.414Z,99668.67
2019-03-15T02:46:52.325Z,99672.20
2019-03-15T02:49:21.359Z,99674.50
2019-03-15T02:51:50.223Z,99682.11
2019-03-15T02:54:18.984Z,99679.89
2019-03-15T02:56:47.604Z,99679.25
2019-03-15T02:59:16.213Z,99675.70
2019-03-15T03:01:44.833Z,99687.17
2019-03-15T03:04:14.139Z,99691.72
2019-03-15T03:06:43.024Z,99693.63
2019-03-15T03:09:12.126Z,99692.19
2019-03-15T03:11:40.779Z,99684.50
2019-03-15T03:14:09.391Z,99684.30
2019-03-15T03:16:38.001Z,99674.49
2019-03-15T03:19:06.595Z,99674.99
2019-03-15T03:21:35.223Z,99680.07
2019-03-15T03:24:03.851Z,99685.06
2019-03-15T03:26:32.467Z,99690.88
2019-03-15T03:29:01.137Z,99690.73
2019-03-15T03:31:29.771Z,99697.09
2019-03-15T03:33:58.530Z,99704.37
2019-03-15T03:36:27.105Z,99698.09
2019-03-15T03:38:55.703Z,99689.61
2019-03-15T03:41:24.320Z,99691.07
2019-03-15T03:43:52.984Z,99689.66
2019-03-15T03:46:21.613Z,99694.93
2019-03-15T03:48:50.365Z,99692.40
2019-03-15T03:51:18.992Z,99697.22
2019-03-15T03:53:47.587Z,99696.69
2019-03-15T03:56:17.410Z,99690.37
2019-03-15T03:58:46.397Z,99701.37
2019-03-15T04:01:15.067Z,99707.86
2019-03-15T04:03:43.734Z,99707.53
2019-03-15T04:06:12.426Z,99704.88
2019-03-15T04:08:41.133Z,99696.03
2019-03-15T04:11:09.739Z,99695.08
2019-03-15T04:13:38.360Z,99701.92
2019-03-15T04:16:07.138Z,99700.96
2019-03-15T04:18:35.942Z,99698.24
2019-03-15T04:21:04.625Z,99693.31
2019-03-15T04:23:33.246Z,99692.98
2019-03-15T04:26:02.409Z,99691.86
2019-03-15T04:28:31.045Z,99692.05
2019-03-15T04:30:59.654Z,99690.39
2019-03-15T04:33:28.332Z,99692.78
2019-03-15T04:35:56.958Z,99692.85
2019-03-15T04:38:25.610Z,99691.22
2019-03-15T04:40:54.200Z,99683.38
2019-03-15T04:43:22.842Z,99676.32
2019-03-15T04:45:51.455Z,99678.30
2019-03-15T04:48:20.072Z,99674.50
2019-03-15T04:50:48.666Z,99668.91
2019-03-15T04:53:17.292Z,99674.49
2019-03-15T04:55:45.906Z,99678.16
2019-03-15T04:58:14.537Z,99684.08
2019-03-15T05:00:43.187Z,99684.17
2019-03-15T05:03:11.804Z,99687.47
2019-03-15T05:05:40.435Z,99691.42
2019-03-15T05:08:09.032Z,99688.36
2019-03-15T05:10:37.669Z,99682.53
2019-03-15T05:13:06.257Z,99677.41
2019-03-15T05:15:34.870Z,99677.52
2019-03-15T05:18:03.476Z,99677.98
2019-03-15T05:20:32.182Z,99674.63
2019-03-15T05:23:00.823Z,99669.67
2019-03-15T05:25:30.047Z,99668.05
2019-03-15T05:27:58.712Z,99671.56
2019-03-15T05:30:27.302Z,99678.69
2019-03-15T05:32:55.938Z,99676.02
2019-03-15T05:35:24.564Z,99672.02
2019-03-15T05:37:53.161Z,99669.86
2019-03-15T05:40:21.775Z,99662.50
2019-03-15T05:42:50.390Z,99669.30
2019-03-15T05:45:19.023Z,99661.67
2019-03-15T05:47:47.693Z,99670.91
2019-03-15T05:50:16.316Z,99676.52
2019-03-15T05:52:44.907Z,99669.23
2019-03-15T05:55:13.639Z,99663.98
2019-03-15T05:57:42.311Z,99668.75
2019-03-15T06:00:12.415Z,99674.94
2019-03-15T06:02:41.094Z,99671.91
2019-03-15T06:05:09.849Z,99671.14
2019-03-15T06:07:38.477Z,99673.47
2019-03-15T06:10:07.880Z,99676.09
2019-03-15T06:12:36.560Z,99675.19
2019-03-15T06:15:05.331Z,99673.61
2019-03-15T06:17:33.960Z,99677.09
2019-03-15T06:20:02.555Z,99671.98
2019-03-15T06:22:31.181Z,99675.53
2019-03-15T06:24:59.792Z,99673.94
2019-03-15T06:27:31.073Z,99675.53
2019-03-15T06:29:58.803Z,99683.11
2019-03-15T06:32:27.430Z,99674.06
2019-03-15T06:34:56.043Z,99675.53
2019-03-15T06:37:24.733Z,99669.33
2019-03-15T06:39:53.337Z,99671.78
2019-03-15T06:42:22.067Z,99661.55
2019-03-15T06:44:57.786Z,99658.32
2019-03-15T06:47:21.048Z,99657.22
2019-03-15T06:49:49.652Z,99655.26
2019-03-15T06:52:18.507Z,99654.95
2019-03-15T06:54:47.100Z,99645.75
2019-03-15T06:57:15.781Z,99648.87
2019-03-15T06:59:44.383Z,99652.73
2019-03-15T07:02:13.047Z,99642.79
2019-03-15T07:04:41.691Z,99635.57
2019-03-15T07:07:10.525Z,99634.81
2019-03-15T07:09:39.394Z,99623.50
2019-03-15T07:12:09.638Z,99617.05
2019-03-15T07:14:38.334Z,99615.95
2019-03-15T07:17:06.957Z,99624.58
2019-03-15T07:19:35.562Z,99610.91
2019-03-15T07:22:04.234Z,99607.91
2019-03-15T07:24:32.917Z,99605.85
2019-03-15T07:27:12.141Z,99605.88
2019-03-15T07:29:32.092Z,99615.89
2019-03-15T07:32:00.777Z,99611.20
2019-03-15T07:34:29.462Z,99604.48
2019-03-15T07:36:58.145Z,99606.59
2019-03-15T07:39:26.933Z,99602.94
2019-03-15T07:41:55.523Z,99592.91
2019-03-15T07:44:24.127Z,99576.41
2019-03-15T07:46:52.804Z,99572.83
2019-03-15T07:49:21.386Z,99573.38
2019-03-15T07:51:50.039Z,99574.59
2019-03-15T07:54:18.658Z,99576.87
2019-03-15T07:56:47.272Z,99579.28
2019-03-15T07:59:15.913Z,99579.88
2019-03-15T08:01:44.515Z,99575.84
2019-03-15T08:04:17.031Z,99570.98
2019-03-15T08:06:43.503Z,99569.44
2019-03-15T08:09:12.112Z,99569.23
2019-03-15T08:11:40.836Z,99567.81
2019-03-15T08:14:09.453Z,99563.41
2019-03-15T08:16:38.062Z,99563.95
2019-03-15T08:19:06.698Z,99561.12
2019-03-15T08:21:35.416Z,99562.12
2019-03-15T08:24:04.115Z,99563.03
2019-03-15T08:26:32.906Z,99551.80
2019-03-15T08:29:01.645Z,99548.31
2019-03-15T08:31:30.402Z,99548.47
2019-03-15T08:33:59.034Z,99542.48
2019-03-15T08:36:27.796Z,99539.00
2019-03-15T08:38:56.551Z,99527.28
2019-03-15T08:41:25.341Z,99512.77
2019-03-15T08:43:53.968Z,99522.38
2019-03-15T08:46:22.600Z,99519.68
2019-03-15T08:48:51.248Z,99523.59
2019-03-15T08:51:20.083Z,99518.36
2019-03-15T08:53:48.689Z,99516.52
2019-03-15T08:56:17.306Z,99515.55
2019-03-15T08:58:45.926Z,99512.20
2019-03-15T09:01:14.578Z,99508.12
2019-03-15T09:03:43.287Z,99497.14
2019-03-15T09:06:11.996Z,99506.77
2019-03-15T09:08:40.601Z,99505.45
2019-03-15T09:11:09.218Z,99499.20
2019-03-15T09:13:37.940Z,99498.40
2019-03-15T09:16:06.763Z,99501.77
2019-03-15T09:18:35.355Z,99520.20
2019-03-15T09:21:03.985Z,99509.16
2019-03-15T09:23:32.670Z,99507.31
2019-03-15T09:26:01.310Z,99511.41
2019-03-15T09:28:30.032Z,99494.02
2019-03-15T09:30:58.687Z,99501.80
2019-03-15T09:33:27.318Z,99500.48
2019-03-15T09:35:56.129Z,99489.91
2019-03-15T09:38:24.837Z,99490.01
2019-03-15T09:40:53.491Z,99486.03
2019-03-15T09:43:22.145Z,99482.87
2019-03-15T09:45:50.764Z,99495.05
2019-03-15T09:48:19.364Z,99482.97
2019-03-15T09:50:51.601Z,99482.45
2019-03-15T09:53:18.336Z,99489.83
2019-03-15T09:55:46.945Z,99495.36
2019-03-15T09:58:15.608Z,99497.72
2019-03-15T10:00:44.292Z,99503.56
2019-03-15T10:03:22.083Z,99497.62
2019-03-15T10:05:43.286Z,99486.58
2019-03-15T10:08:11.928Z,99497.13
2019-03-15T10:10:40.632Z,99484.71
2019-03-15T10:13:09.364Z,99475.58
2019-03-15T10:15:38.009Z,99492.83
2019-03-15T10:18:06.688Z,99483.58
2019-03-15T10:20:35.291Z,99484.59
2019-03-15T10:23:06.225Z,99477.23
2019-03-15T10:25:45.947Z,99481.84
2019-03-15T10:28:04.739Z,99484.26
2019-03-15T10:30:33.354Z,99477.91
2019-03-15T10:33:02.096Z,99470.73
2019-03-15T10:35:30.696Z,99471.00
2019-03-15T10:37:59.390Z,99466.17
2019-03-15T10:40:28.061Z,99474.66
2019-03-15T10:42:56.682Z,99467.98
2019-03-15T10:45:25.308Z,99455.03
2019-03-15T10:47:55.485Z,99453.11
2019-03-15T10:50:24.101Z,99453.41
2019-03-15T10:52:53.931Z,99455.25
2019-03-15T10:55:22.903Z,99440.07
2019-03-15T10:57:51.520Z,99453.46
2019-03-15T11:00:20.238Z,99454.06
2019-03-15T11:02:48.998Z,99447.35
2019-03-15T11:05:17.735Z,99443.66
2019-03-15T11:07:46.427Z,99445.37
2019-03-15T11:10:15.313Z,99447.53
2019-03-15T11:12:44.403Z,99437.48
2019-03-15T11:15:13.272Z,99449.47
2019-03-15T11:17:42.025Z,99450.02
2019-03-15T11:20:10.841Z,99444.03
2019-03-15T11:22:39.520Z,99448.05
2019-03-15T11:25:08.280Z,99447.22
2019-03-15T11:27:37.118Z,99450.17
2019-03-15T11:30:06.017Z,99445.80
2019-03-15T11:32:35.017Z,99441.88
2019-03-15T11:35:03.837Z,99441.03
2019-03-15T11:37:32.697Z,99447.31
2019-03-15T11:40:01.283Z,99449.47
2019-03-15T11:42:29.926Z,99453.26
2019-03-15T11:44:58.538Z,99440.11
2019-03-15T11:47:27.270Z,99443.19
2019-03-15T11:49:55.979Z,99444.01
2019-03-15T11:52:24.595Z,99437.86
2019-03-15T11:54:53.284Z,99440.23
2019-03-15T11:57:22.018Z,99436.44
2019-03-15T11:59:50.822Z,99439.57
2019-03-15T12:02:19.605Z,99433.48
2019-03-15T12:04:48.310Z,99448.41
2019-03-15T12:07:16.924Z,99446.19
2019-03-15T12:09:45.794Z,99435.58
2019-03-15T12:12:14.408Z,99434.56
2019-03-15T12:14:43.028Z,99430.95
2019-03-15T12:17:11.674Z,99420.13
2019-03-15T12:19:40.324Z,99424.92
2019-03-15T12:22:09.025Z,99430.73
2019-03-15T12:24:37.608Z,99442.80
2019-03-15T12:27:06.262Z,99442.58
2019-03-15T12:29:34.921Z,99431.27
2019-03-15T12:32:03.524Z,99430.58
2019-03-15T12:34:32.121Z,99421.67
2019-03-15T12:37:00.754Z,99426.09
2019-03-15T12:39:29.378Z,99430.39
2019-03-15T12:41:58.033Z,99438.88
2019-03-15T12:44:26.615Z,99434.63
2019-03-15T12:46:55.263Z,99441.08
2019-03-15T12:49:25.665Z,99433.53
2019-03-15T12:51:54.431Z,99436.31
2019-03-15T12:54:23.011Z,99432.21
2019-03-15T12:56:54.009Z,99431.06
2019-03-15T12:59:21.982Z,99437.59
2019-03-15T13:01:50.587Z,99439.19
2019-03-15T13:04:19.187Z,99435.78
2019-03-15T13:06:47.807Z,99425.69
2019-03-15T13:09:16.394Z,99445.63
2019-03-15T13:11:44.978Z,99433.55
2019-03-15T13:14:13.592Z,99424.28
2019-03-15T13:16:42.206Z,99416.44
2019-03-15T13:19:10.872Z,99416.21
2019-03-15T13:21:39.466Z,99419.27
2019-03-15T13:24:08.062Z,99422.80
2019-03-15T13:26:36.652Z,99424.04
2019-03-15T13:29:05.266Z,99418.13
2019-03-15T13:31:33.864Z,99417.77
2019-03-15T13:34:02.478Z,99422.78
2019-03-15T13:36:31.116Z,99434.54
2019-03-15T13:38:59.721Z,99421.65
2019-03-15T13:41:28.299Z,99441.36
2019-03-15T13:43:56.907Z,99435.73
2019-03-15T13:46:25.516Z,99439.00
2019-03-15T13:48:54.146Z,99447.39
2019-03-15T13:51:22.934Z,99444.95
2019-03-15T13:53:51.523Z,99449.26
2019-03-15T13:56:20.156Z,99468.61
2019-03-15T13:58:57.185Z,99466.23
2019-03-15T14:01:19.239Z,99474.30
2019-03-15T14:03:47.863Z,99465.18
2019-03-15T14:06:16.475Z,99463.27
2019-03-15T14:08:45.091Z,99455.26
2019-03-15T14:11:13.702Z,99452.18
2019-03-15T14:13:42.329Z,99454.82
2019-03-15T14:16:10.945Z,99452.95
2019-03-15T14:18:39.669Z,99465.73
2019-03-15T14:21:08.367Z,99450.86
2019-03-15T14:23:37.703Z,99447.58
2019-03-15T14:26:06.310Z,99444.37
2019-03-15T14:28:35.070Z,99446.75
2019-03-15T14:31:03.666Z,99450.33
2019-03-15T14:33:32.367Z,99455.67
2019-03-15T14:36:03.891Z,99461.27
2019-03-15T14:38:31.429Z,99462.94
2019-03-15T14:41:00.086Z,99463.52
2019-03-15T14:43:28.717Z,99456.12
2019-03-15T14:45:57.472Z,99453.63
2019-03-15T14:48:26.073Z,99456.44
2019-03-15T14:50:54.705Z,99448.36
2019-03-15T14:53:23.310Z,99463.06
2019-03-15T14:55:52.002Z,99451.84
2019-03-15T14:58:20.656Z,99450.43
2019-03-15T15:00:49.241Z,99447.47
2019-03-15T15:03:17.819Z,99456.82
2019-03-15T15:05:47.459Z,99453.75
2019-03-15T15:08:16.114Z,99454.74
2019-03-15T15:10:44.712Z,99455.34
2019-03-15T15:13:13.316Z,99449.69
2019-03-15T15:15:41.929Z,99439.48
2019-03-15T15:18:10.550Z,99455.59
2019-03-15T15:20:39.164Z,99443.73
2019-03-15T15:23:07.827Z,99443.73
2019-03-15T15:25:36.501Z,99454.16
2019-03-15T15:28:05.257Z,99455.20
2019-03-15T15:30:33.883Z,99465.11
2019-03-15T15:33:02.521Z,99469.27
2019-03-15T15:35:31.159Z,99460.87
2019-03-15T15:37:59.748Z,99458.43
2019-03-15T15:40:28.411Z,99457.61
2019-03-15T15:42:57.002Z,99450.64
2019-03-15T15:45:25.614Z,99463.80
2019-03-15T15:47:54.388Z,99460.95
2019-03-15T15:50:23.082Z,99459.01
2019-03-15T15:52:51.625Z,99477.84
2019-03-15T15:55:20.282Z,99446.17
2019-03-15T15:57:48.899Z,99466.19
2019-03-15T16:00:17.529Z,99455.69
2019-03-15T16:02:46.299Z,99460.23
2019-03-15T16:05:14.964Z,99466.68
2019-03-15T16:07:43.624Z,99472.18
2019-03-15T16:10:12.420Z,99471.54
2019-03-15T16:12:41.017Z,99474.41
2019-03-15T16:15:10.359Z,99459.72
2019-03-15T16:17:38.947Z,99458.75
2019-03-15T16:20:08.241Z,99454.84
2019-03-15T16:22:36.934Z,99461.31
2019-03-15T16:25:05.610Z,99445.71
2019-03-15T16:27:34.218Z,99452.67
2019-03-15T16:30:02.846Z,99433.23
2019-03-15T16:32:31.444Z,99445.56
2019-03-15T16:35:00.051Z,99439.61
2019-03-15T16:37:28.683Z,99452.22
2019-03-15T16:39:57.309Z,99451.36
2019-03-15T16:42:25.925Z,99450.42
2019-03-15T16:44:54.536Z,99457.66
2019-03-15T16:47:23.148Z,99450.27
2019-03-15T16:49:51.757Z,99447.86
2019-03-15T16:52:20.443Z,99455.52
2019-03-15T16:54:49.030Z,99461.95
2019-03-15T16:57:17.731Z,99474.73
2019-03-15T16:59:46.315Z,99464.79
2019-03-15T17:02:15.055Z,99465.61
2019-03-15T17:04:43.714Z,99473.98
2019-03-15T17:07:13.189Z,99477.30
2019-03-15T17:09:41.880Z,99479.58
2019-03-15T17:12:10.505Z,99483.27
2019-03-15T17:14:39.125Z,99498.20
2019-03-15T17:17:07.760Z,99490.09
2019-03-15T17:19:36.475Z,99473.98
2019-03-15T17:22:05.156Z,99480.34
2019-03-15T17:24:33.763Z,99476.59
2019-03-15T17:27:02.360Z,99470.82
2019-03-15T17:29:30.973Z,99485.48
2019-03-15T17:31:59.668Z,99488.75
2019-03-15T17:34:28.265Z,99487.00
2019-03-15T17:37:06.682Z,99480.11
2019-03-15T17:39:27.302Z,99478.47
2019-03-15T17:41:55.895Z,99480.11
2019-03-15T17:44:24.521Z,99470.17
2019-03-15T17:46:53.227Z,99475.02
2019-03-15T17:49:21.822Z,99475.36
2019-03-15T17:51:50.442Z,99484.24
2019-03-15T17:54:22.266Z,99486.66
2019-03-15T17:56:50.880Z,99487.10
2019-03-15T17:59:19.502Z,99486.52
2019-03-15T18:01:48.084Z,99490.37
2019-03-15T18:04:16.957Z,99496.45
2019-03-15T18:06:45.569Z,99495.11
2019-03-15T18:09:14.187Z,99509.98
2019-03-15T18:11:42.877Z,99505.95
2019-03-15T18:14:11.493Z,99504.58
2019-03-15T18:16:40.089Z,99519.34
2019-03-15T18:19:09.057Z,99509.84
2019-03-15T18:21:37.645Z,99511.22
2019-03-15T18:24:06.426Z,99524.46
2019-03-15T18:26:35.065Z,99508.73
2019-03-15T18:29:03.943Z,99520.04
2019-03-15T18:31:32.529Z,99518.53
2019-03-15T18:34:01.143Z,99520.91
2019-03-15T18:36:29.763Z,99527.84
2019-03-15T18:39:00.895Z,99528.48
2019-03-15T18:41:30.618Z,99518.02
2019-03-15T18:44:04.380Z,99527.77
2019-03-15T18:46:35.196Z,99520.86
2019-03-15T18:49:04.676Z,99527.14
2019-03-15T18:51:45.593Z,99515.28
2019-03-15T18:54:20.585Z,99533.00
2019-03-15T18:56:49.900Z,99513.48
2019-03-15T18:59:23.324Z,99525.12
2019-03-15T19:01:57.742Z,99514.75
2019-03-15T19:04:29.467Z,99525.25
2019-03-15T19:06:59.029Z,99518.55
2019-03-15T19:09:28.704Z,99522.05
2019-03-15T19:11:57.767Z,99532.11
2019-03-15T19:14:26.601Z,99523.27
2019-03-15T19:16:59.774Z,99535.78
2019-03-15T19:19:28.311Z,99532.06
2019-03-15T19:21:59.185Z,99540.31
2019-03-15T19:24:29.883Z,99538.38
2019-03-15T19:26:59.444Z,99550.20
2019-03-15T19:29:29.532Z,99550.00
2019-03-15T19:32:36.210Z,99544.92
2019-03-15T19:35:06.012Z,99545.66
2019-03-15T19:37:34.907Z,99554.66
2019-03-15T19:40:05.251Z,99557.34
2019-03-15T19:42:33.992Z,99561.20
2019-03-15T19:45:04.520Z,99564.87
2019-03-15T19:47:43.892Z,99564.95
2019-03-15T19:50:13.845Z,99560.69
2019-03-15T19:52:44.110Z,99567.98
2019-03-15T19:55:13.267Z,99577.44
2019-03-15T19:57:42.092Z,99567.59
2019-03-15T20:00:13.081Z,99586.20
2019-03-15T20:02:41.914Z,99585.16
2019-03-15T20:05:11.104Z,99581.81
2019-03-15T20:07:39.988Z,99589.63
2019-03-15T20:10:11.486Z,99598.77
2019-03-15T20:12:41.229Z,99602.95
2019-03-15T20:15:11.241Z,99595.27
2019-03-15T20:17:50.808Z,99613.68
2019-03-15T20:20:21.996Z,99606.81
2019-03-15T20:22:51.329Z,99609.14
2019-03-15T20:25:20.504Z,99611.42
2019-03-15T20:27:51.468Z,99618.66
2019-03-15T20:30:25.679Z,99620.21
2019-03-15T20:32:51.548Z,99626.84
2019-03-15T20:35:21.760Z,99623.20
2019-03-15T20:37:50.608Z,99628.85
2019-03-15T20:40:19.452Z,99624.16
2019-03-15T20:42:49.700Z,99622.52
2019-03-15T20:45:22.084Z,99631.98
2019-03-15T20:47:50.945Z,99636.30
2019-03-15T20:50:19.767Z,99647.44
2019-03-15T20:52:50.577Z,99647.25
2019-03-15T20:55:19.444Z,99652.27
2019-03-15T20:57:48.544Z,99658.92
2019-03-15T21:00:17.428Z,99654.34
2019-03-15T21:02:46.376Z,99669.70
2019-03-15T21:05:15.619Z,99661.60
2019-03-15T21:07:44.470Z,99660.03
2019-03-15T21:10:13.009Z,99672.98
2019-03-15T21:12:41.750Z,99671.27
2019-03-15T21:15:11.269Z,99679.92
2019-03-15T21:17:40.116Z,99681.27
2019-03-15T21:20:11.469Z,99683.43
2019-03-15T21:22:40.339Z,99678.14
2019-03-15T21:25:09.609Z,99670.84
2019-03-15T21:27:38.343Z,99680.58
2019-03-15T21:30:09.505Z,99681.57
2019-03-15T21:32:38.195Z,99683.12
2019-03-15T21:35:10.021Z,99685.20
2019-03-15T21:37:39.018Z,99679.68
2019-03-15T21:40:09.105Z,99675.45
2019-03-15T21:42:37.945Z,99686.98
2019-03-15T21:45:06.938Z,99688.56
2019-03-15T21:47:35.734Z,99686.50
2019-03-15T21:50:04.922Z,99681.03
2019-03-15T21:52:33.667Z,99683.07
2019-03-15T21:55:02.486Z,99682.53
2019-03-15T21:57:31.528Z,99699.53
2019-03-15T22:00:00.599Z,99692.35
2019-03-15T22:02:29.523Z,99700.12
2019-03-15T22:04:58.856Z,99701.75
2019-03-15T22:07:28.097Z,99724.28
2019-03-15T22:09:57.091Z,99713.08
2019-03-15T22:12:25.797Z,99709.80
2019-03-15T22:14:54.704Z,99703.52
2019-03-15T22:17:24.727Z,99710.63
2019-03-15T22:19:54.466Z,99716.74
2019-03-15T22:22:24.099Z,99709.00
2019-03-15T22:24:54.055Z,99717.21
2019-03-15T22:27:23.922Z,99727.40
2019-03-15T22:29:54.632Z,99736.44
2019-03-15T22:32:30.298Z,99737.77
2019-03-15T22:34:59.197Z,99766.03
2019-03-15T22:37:30.820Z,99760.27
2019-03-15T22:40:01.467Z,99778.31
2019-03-15T22:42:31.424Z,99796.04
2019-03-15T22:45:01.170Z,99780.55
2019-03-15T22:47:33.930Z,99787.77
2019-03-15T22:50:05.945Z,99795.07
2019-03-15T22:52:35.250Z,99793.45
2019-03-15T22:55:04.196Z,99793.48
2019-03-15T22:57:33.032Z,99802.03
2019-03-15T23:00:01.787Z,99793.86
2019-03-15T23:02:30.608Z,99800.43
2019-03-15T23:04:59.387Z,99792.46
2019-03-15T23:07:28.081Z,99795.52
2019-03-15T23:09:57.121Z,99792.40
2019-03-15T23:12:26.134Z,99783.50
2019-03-15T23:14:55.121Z,99787.62
2019-03-15T23:17:24.292Z,99793.95
2019-03-15T23:19:53.097Z,99795.14
2019-03-15T23:22:24.196Z,99792.27
2019-03-15T23:24:54.425Z,99795.61
2019-03-15T23:27:24.741Z,99793.86
2019-03-15T23:29:53.564Z,99790.13
2019-03-15T23:32:22.449Z,99790.00
2019-03-15T23:34:51.223Z,99786.96
2019-03-15T23:37:19.971Z,99801.33
2019-03-15T23:39:52.889Z,99791.83
2019-03-15T23:42:21.665Z,99777.36
2019-03-15T23:44:50.367Z,99781.42
2019-03-15T23:47:19.193Z,99794.67
2019-03-15T23:49:47.946Z,99783.08
2019-03-15T23:52:16.783Z,99798.66
2019-03-15T23:54:46.944Z,99796.47
2019-03-15T23:57:15.665Z,99792.55
2019-03-15T23:59:44.447Z,99810.33
